Time;durP1;ratioP1;P1;durP2;ratioP2;P2;SDS_P1;SDS_P2;PMS_P1;PMS_P2;Temp;Humidity;BMP_temperature;BMP_pressure;BME280_temperature;BME280_humidity;BME280_pressure;Samples;Min_cycle;Max_cycle;Signal;HPM_P1;HPM_P2
2021/10/27 00:00:08;;;;;;;;;;;;;;;15.63;77.34;101742.34;1045720;28;873;-61
2021/10/27 00:00:58;;;;;;;;;;;;;;;15.62;77.42;101745.97;1045776;28;634;-61
2021/10/27 00:01:48;;;;;;;;;;;;;;;15.62;77.27;101746.84;1045090;28;838;-61
2021/10/27 00:02:39;;;;;;;;;;;;;;;15.62;77.72;101743.28;1040668;28;708;-61
2021/10/27 00:03:29;;;;;;;;;;;;;;;15.62;77.46;101743.28;1041265;28;721;-61
2021/10/27 00:04:20;;;;;;;;;;;;;;;15.62;77.41;101744.16;1045605;28;665;-62
2021/10/27 00:05:13;;;;;;;;;;;;;;;15.61;77.50;101745.13;1045797;28;1020;-61
2021/10/27 00:06:03;;;;;;;;;;;;;;;15.61;77.66;101742.44;1045091;28;845;-61
2021/10/27 00:06:54;;;;;;;;;;;;;;;15.61;77.76;101745.13;1045670;28;697;-61
2021/10/27 00:07:44;;;;;;;;;;;;;;;15.62;77.45;101737.94;1045626;28;622;-61
2021/10/27 00:08:34;;;;;;;;;;;;;;;15.61;77.60;101739.75;1045705;28;762;-61
2021/10/27 00:09:25;;;;;;;;;;;;;;;15.62;77.38;101740.59;1040708;28;634;-62
2021/10/27 00:10:15;;;;;;;;;;;;;;;15.61;77.59;101734.38;1041339;28;885;-61
2021/10/27 00:11:06;;;;;;;;;;;;;;;15.61;77.28;101742.44;1045476;28;690;-61
2021/10/27 00:11:56;;;;;;;;;;;;;;;15.61;77.77;101736.19;1045772;28;669;-61
2021/10/27 00:12:46;;;;;;;;;;;;;;;15.61;77.79;101739.75;1045724;28;633;-61
2021/10/27 00:13:37;;;;;;;;;;;;;;;15.61;77.51;101734.38;1045737;28;692;-61
2021/10/27 00:14:28;;;;;;;;;;;;;;;15.61;77.47;101733.53;1045276;28;879;-61
2021/10/27 00:15:18;;;;;;;;;;;;;;;15.62;77.51;101736.09;1045813;28;633;-61
2021/10/27 00:16:09;;;;;;;;;;;;;;;15.61;77.79;101742.44;1045768;28;958;-61
2021/10/27 00:16:59;;;;;;;;;;;;;;;15.61;77.27;101742.44;1046378;28;686;-61
2021/10/27 00:17:50;;;;;;;;;;;;;;;15.60;77.33;101739.84;1048737;28;1603;-61
2021/10/27 00:18:40;;;;;;;;;;;;;;;15.61;77.91;101736.19;1050388;28;866;-61
2021/10/27 00:19:31;;;;;;;;;;;;;;;15.61;77.57;101745.13;1050410;28;1898;-61
2021/10/27 00:20:21;;;;;;;;;;;;;;;15.61;77.72;101741.56;1050312;28;697;-62
2021/10/27 00:21:11;;;;;;;;;;;;;;;15.61;77.39;101745.13;1050433;28;754;-61
2021/10/27 00:22:02;;;;;;;;;;;;;;;15.61;77.33;101737.06;1050413;28;645;-61
2021/10/27 00:22:52;;;;;;;;;;;;;;;15.60;77.47;101740.72;1050386;28;928;-61
2021/10/27 00:23:43;;;;;;;;;;;;;;;15.61;77.46;101742.44;1050384;28;657;-61
2021/10/27 00:24:33;;;;;;;;;;;;;;;15.60;77.56;101734.47;1050398;28;680;-61
2021/10/27 00:25:23;;;;;;;;;;;;;;;15.60;77.91;101743.41;1050337;28;775;-61
2021/10/27 00:26:14;;;;;;;;;;;;;;;15.61;77.58;101733.53;1050509;28;773;-61
2021/10/27 00:27:07;;;;;;;;;;;;;;;15.61;77.49;101737.06;1050356;28;1179;-61
2021/10/27 00:27:57;;;;;;;;;;;;;;;15.61;77.90;101739.75;1050310;28;743;-63
2021/10/27 00:28:47;;;;;;;;;;;;;;;15.61;77.94;101738.88;1050333;28;721;-63
2021/10/27 00:29:39;;;;;;;;;;;;;;;15.61;77.90;101738.88;1050363;28;630;-63
2021/10/27 00:30:29;;;;;;;;;;;;;;;15.61;77.51;101739.75;1050365;28;758;-63
2021/10/27 00:31:20;;;;;;;;;;;;;;;15.61;77.76;101738.88;1050281;28;793;-64
2021/10/27 00:32:10;;;;;;;;;;;;;;;15.60;77.48;101732.66;1050336;28;710;-62
2021/10/27 00:33:01;;;;;;;;;;;;;;;15.62;77.49;101735.25;1050414;28;810;-62
2021/10/27 00:33:51;;;;;;;;;;;;;;;15.61;77.33;101731.69;1050361;28;739;-64
2021/10/27 00:34:42;;;;;;;;;;;;;;;15.61;77.97;101739.75;1050327;28;621;-63
2021/10/27 00:35:32;;;;;;;;;;;;;;;15.60;77.80;101732.66;1050362;28;791;-63
2021/10/27 00:36:22;;;;;;;;;;;;;;;15.62;77.64;101744.16;1047732;28;1920;-62
2021/10/27 00:37:13;;;;;;;;;;;;;;;15.62;77.92;101743.28;1047907;28;661;-62
2021/10/27 00:38:03;;;;;;;;;;;;;;;15.61;77.87;101734.38;1049280;28;909;-61
2021/10/27 00:38:54;;;;;;;;;;;;;;;15.61;77.90;101746.94;1051104;28;704;-62
2021/10/27 00:39:46;;;;;;;;;;;;;;;15.61;77.46;101753.19;1049053;28;1956;-61
2021/10/27 00:40:37;;;;;;;;;;;;;;;15.61;77.68;101738.88;1049795;28;684;-61
2021/10/27 00:41:27;;;;;;;;;;;;;;;15.61;77.36;101742.44;1049104;28;761;-62
2021/10/27 00:42:17;;;;;;;;;;;;;;;15.61;77.44;101737.06;1049314;28;759;-61
2021/10/27 00:43:08;;;;;;;;;;;;;;;15.60;77.40;101738.03;1049868;28;816;-62
2021/10/27 00:43:58;;;;;;;;;;;;;;;15.60;77.98;101743.41;1049254;28;697;-62
2021/10/27 00:44:49;;;;;;;;;;;;;;;15.60;77.45;101735.34;1048968;28;1557;-62
2021/10/27 00:45:39;;;;;;;;;;;;;;;15.60;78.00;101740.72;1050680;28;1712;-61
2021/10/27 00:46:29;;;;;;;;;;;;;;;15.60;77.80;101738.03;1050765;28;742;-62
2021/10/27 00:47:22;;;;;;;;;;;;;;;15.60;78.14;101743.41;1050908;28;793;-62
2021/10/27 00:48:13;;;;;;;;;;;;;;;15.60;77.63;101738.03;1049642;28;704;-62
2021/10/27 00:49:03;;;;;;;;;;;;;;;15.60;77.44;101737.16;1049767;28;637;-62
2021/10/27 00:49:54;;;;;;;;;;;;;;;15.60;77.47;101742.53;1049634;28;857;-62
2021/10/27 00:50:44;;;;;;;;;;;;;;;15.59;77.83;101736.31;1049759;28;712;-62
2021/10/27 00:51:34;;;;;;;;;;;;;;;15.60;77.78;101738.03;1049739;28;629;-62
2021/10/27 00:52:25;;;;;;;;;;;;;;;15.60;77.65;101732.66;1049680;28;697;-62
2021/10/27 00:53:15;;;;;;;;;;;;;;;15.60;77.74;101743.41;1049730;28;1095;-62
2021/10/27 00:54:06;;;;;;;;;;;;;;;15.59;77.84;101733.63;1049651;28;901;-62
2021/10/27 00:54:57;;;;;;;;;;;;;;;15.59;77.82;101739.00;1049185;28;1172;-62
2021/10/27 00:55:48;;;;;;;;;;;;;;;15.60;77.64;101739.84;1049678;28;718;-62
2021/10/27 00:56:39;;;;;;;;;;;;;;;15.59;77.42;101730.94;1050339;28;644;-62
2021/10/27 00:57:29;;;;;;;;;;;;;;;15.59;77.69;101741.69;1050486;28;633;-62
2021/10/27 00:58:19;;;;;;;;;;;;;;;15.59;77.59;101732.75;1050478;28;938;-63
2021/10/27 00:59:10;;;;;;;;;;;;;;;15.59;77.97;101736.31;1050479;28;721;-62
2021/10/27 01:00:00;;;;;;;;;;;;;;;15.59;78.00;101735.44;1050465;28;817;-62
2021/10/27 01:00:51;;;;;;;;;;;;;;;15.58;77.39;101731.94;1050494;28;638;-62
2021/10/27 01:01:41;;;;;;;;;;;;;;;15.59;77.82;101736.31;1050418;28;740;-62
2021/10/27 01:02:32;;;;;;;;;;;;;;;15.59;77.66;101735.44;1050350;28;969;-62
2021/10/27 01:03:22;;;;;;;;;;;;;;;15.58;77.54;101729.25;1045158;28;740;-61
2021/10/27 01:04:12;;;;;;;;;;;;;;;15.59;77.96;101735.44;1046012;28;979;-62
2021/10/27 01:05:03;;;;;;;;;;;;;;;15.58;77.76;101739.13;1050412;28;688;-62
2021/10/27 01:05:53;;;;;;;;;;;;;;;15.59;77.22;101738.13;1050387;28;702;-62
2021/10/27 01:06:44;;;;;;;;;;;;;;;15.58;77.53;101734.63;1049623;28;794;-62
2021/10/27 01:07:34;;;;;;;;;;;;;;;15.59;77.93;101735.44;1050367;28;626;-62
2021/10/27 01:08:25;;;;;;;;;;;;;;;15.58;77.70;101736.44;1050207;28;1425;-62
2021/10/27 01:09:15;;;;;;;;;;;;;;;15.58;77.91;101740.00;1050480;28;661;-62
2021/10/27 01:10:06;;;;;;;;;;;;;;;15.58;77.76;101740.00;1042248;28;727;-62
2021/10/27 01:10:56;;;;;;;;;;;;;;;15.57;77.68;101735.59;1046377;28;775;-62
2021/10/27 01:11:48;;;;;;;;;;;;;;;15.58;77.58;101747.19;1046325;28;649;-62
2021/10/27 01:12:38;;;;;;;;;;;;;;;15.58;77.33;101744.50;1045933;28;1713;-62
2021/10/27 01:13:29;;;;;;;;;;;;;;;15.58;77.78;101739.13;1042772;28;639;-62
2021/10/27 01:14:19;;;;;;;;;;;;;;;15.59;77.55;101747.06;1043348;28;715;-62
2021/10/27 01:15:10;;;;;;;;;;;;;;;15.59;77.56;101743.50;1044199;28;855;-62
2021/10/27 01:16:01;;;;;;;;;;;;;;;15.59;77.83;101746.19;1046397;28;728;-62
2021/10/27 01:16:51;;;;;;;;;;;;;;;15.58;77.56;101750.75;1046264;28;828;-62
2021/10/27 01:17:41;;;;;;;;;;;;;;;15.58;77.47;101745.38;1046265;28;707;-62
2021/10/27 01:18:32;;;;;;;;;;;;;;;15.58;77.82;101748.06;1046246;28;651;-62
2021/10/27 01:19:22;;;;;;;;;;;;;;;15.57;77.31;101757.09;1046330;28;746;-62
2021/10/27 01:20:13;;;;;;;;;;;;;;;15.58;77.79;101752.56;1046344;28;641;-62
2021/10/27 01:21:03;;;;;;;;;;;;;;;15.58;77.49;101749.88;1046224;28;672;-62
2021/10/27 01:21:53;;;;;;;;;;;;;;;15.57;77.50;101746.34;1046354;28;645;-62
2021/10/27 01:22:44;;;;;;;;;;;;;;;15.58;77.22;101755.25;1046257;28;598;-62
2021/10/27 01:23:34;;;;;;;;;;;;;;;15.57;77.88;101759.78;1046261;28;657;-62
2021/10/27 01:24:25;;;;;;;;;;;;;;;15.57;77.78;101754.41;1046228;28;817;-63
2021/10/27 01:25:15;;;;;;;;;;;;;;;15.58;77.34;101755.25;1046300;28;1036;-62
2021/10/27 01:26:06;;;;;;;;;;;;;;;15.58;77.69;101760.63;1046399;28;774;-62
2021/10/27 01:26:56;;;;;;;;;;;;;;;15.57;77.84;101754.41;1046281;28;613;-62
2021/10/27 01:27:47;;;;;;;;;;;;;;;15.57;77.17;101753.53;1046281;28;707;-62
2021/10/27 01:28:37;;;;;;;;;;;;;;;15.57;77.35;101757.09;1046254;28;696;-62
2021/10/27 01:29:27;;;;;;;;;;;;;;;15.57;77.73;101754.41;1046209;28;768;-62
2021/10/27 01:30:18;;;;;;;;;;;;;;;15.56;77.75;101750.00;1046229;28;1236;-63
2021/10/27 01:31:08;;;;;;;;;;;;;;;15.56;77.26;101758.06;1046302;28;606;-63
2021/10/27 01:31:59;;;;;;;;;;;;;;;15.56;77.54;101751.81;1046330;28;676;-63
2021/10/27 01:32:49;;;;;;;;;;;;;;;15.57;77.64;101751.72;1046165;28;641;-63
2021/10/27 01:33:39;;;;;;;;;;;;;;;15.56;77.67;101751.81;1049463;28;1683;-62
2021/10/27 01:34:30;;;;;;;;;;;;;;;15.56;77.64;101747.31;1050340;28;673;-63
2021/10/27 01:35:20;;;;;;;;;;;;;;;15.56;77.85;101750.00;1049775;28;668;-62
2021/10/27 01:36:11;;;;;;;;;;;;;;;15.57;77.56;101742.78;1050080;28;1572;-62
2021/10/27 01:37:01;;;;;;;;;;;;;;;15.56;77.75;101752.69;1048690;28;697;-62
2021/10/27 01:37:51;;;;;;;;;;;;;;;15.55;77.90;101742.91;1049265;28;730;-62
2021/10/27 01:38:42;;;;;;;;;;;;;;;15.56;77.82;101749.13;1049655;28;637;-62
2021/10/27 01:39:32;;;;;;;;;;;;;;;15.57;77.86;101758.91;1049723;28;1963;-62
2021/10/27 01:40:23;;;;;;;;;;;;;;;15.56;78.12;101755.38;1049065;28;730;-62
2021/10/27 01:41:13;;;;;;;;;;;;;;;15.56;77.50;101747.31;1049180;28;766;-62
2021/10/27 01:42:04;;;;;;;;;;;;;;;15.56;78.00;101751.81;1049067;28;845;-62
2021/10/27 01:42:56;;;;;;;;;;;;;;;15.55;77.36;101742.00;1049239;28;692;-62
2021/10/27 01:43:46;;;;;;;;;;;;;;;15.56;77.98;101743.75;1049192;28;664;-62
2021/10/27 01:44:36;;;;;;;;;;;;;;;15.56;77.93;101741.06;1049750;28;637;-62
2021/10/27 01:45:27;;;;;;;;;;;;;;;15.56;77.71;101741.06;1049164;28;666;-62
2021/10/27 01:46:18;;;;;;;;;;;;;;;15.56;77.45;101743.75;1048168;28;952;-63
2021/10/27 01:47:08;;;;;;;;;;;;;;;15.56;77.68;101738.38;1049235;28;653;-62
2021/10/27 01:47:59;;;;;;;;;;;;;;;15.56;77.76;101738.38;1049274;28;937;-62
2021/10/27 01:48:49;;;;;;;;;;;;;;;15.56;77.86;101736.56;1048557;28;630;-62
2021/10/27 01:49:39;;;;;;;;;;;;;;;15.56;77.53;101741.06;1049182;28;642;-62
2021/10/27 01:50:30;;;;;;;;;;;;;;;15.56;77.50;101741.94;1048707;28;1638;-62
2021/10/27 01:51:20;;;;;;;;;;;;;;;15.56;77.45;101741.06;1050257;28;734;-62
2021/10/27 01:52:11;;;;;;;;;;;;;;;15.55;77.63;101737.53;1050065;28;1578;-62
2021/10/27 01:53:01;;;;;;;;;;;;;;;15.55;78.03;101734.84;1046050;28;993;-62
2021/10/27 01:53:52;;;;;;;;;;;;;;;15.55;77.90;101737.53;1046234;28;629;-62
2021/10/27 01:54:43;;;;;;;;;;;;;;;15.55;77.57;101737.53;1045357;28;1303;-63
2021/10/27 01:55:33;;;;;;;;;;;;;;;15.56;77.70;101733.00;1046267;28;696;-62
2021/10/27 01:56:24;;;;;;;;;;;;;;;15.55;78.00;101729.47;1046117;28;756;-62
2021/10/27 01:57:14;;;;;;;;;;;;;;;15.55;77.74;101734.84;1046100;28;650;-62
2021/10/27 01:58:04;;;;;;;;;;;;;;;15.56;77.95;101741.06;1046167;28;692;-62
2021/10/27 01:58:55;;;;;;;;;;;;;;;15.56;77.82;101736.56;1046077;28;800;-62
2021/10/27 01:59:45;;;;;;;;;;;;;;;15.55;77.27;101734.84;1046039;28;1961;-62
2021/10/27 02:00:36;;;;;;;;;;;;;;;15.56;77.86;101731.19;1046098;28;696;-62
2021/10/27 02:01:26;;;;;;;;;;;;;;;15.55;77.98;101734.84;1046082;28;685;-62
2021/10/27 02:02:16;;;;;;;;;;;;;;;15.56;77.45;101736.56;1045655;28;646;-62
2021/10/27 02:03:07;;;;;;;;;;;;;;;15.55;77.80;101731.25;1046178;28;776;-62
2021/10/27 02:03:58;;;;;;;;;;;;;;;15.55;77.40;101732.16;1046100;28;777;-62
2021/10/27 02:04:48;;;;;;;;;;;;;;;15.55;77.93;101729.47;1045844;28;759;-62
2021/10/27 02:05:39;;;;;;;;;;;;;;;15.56;78.09;101736.56;1045392;28;681;-62
2021/10/27 02:06:29;;;;;;;;;;;;;;;15.56;77.74;101722.25;1046094;28;661;-62
2021/10/27 02:07:20;;;;;;;;;;;;;;;15.55;78.04;101729.47;1045899;28;895;-62
2021/10/27 02:08:10;;;;;;;;;;;;;;;15.55;78.03;101728.56;1045470;28;1382;-62
2021/10/27 02:09:01;;;;;;;;;;;;;;;15.54;77.77;101730.41;1045425;28;847;-62
2021/10/27 02:09:51;;;;;;;;;;;;;;;15.55;78.03;101723.19;1045635;28;676;-63
2021/10/27 02:10:42;;;;;;;;;;;;;;;15.56;77.76;101730.31;1045629;28;700;-62
2021/10/27 02:11:32;;;;;;;;;;;;;;;15.54;77.46;101727.72;1045440;28;705;-62
2021/10/27 02:12:23;;;;;;;;;;;;;;;15.55;77.92;101718.72;1045641;28;743;-62
2021/10/27 02:13:14;;;;;;;;;;;;;;;15.54;77.63;101721.47;1045524;28;865;-62
2021/10/27 02:14:04;;;;;;;;;;;;;;;15.55;77.66;101724.09;1045476;28;685;-62
2021/10/27 02:14:55;;;;;;;;;;;;;;;15.55;77.81;101720.50;1045450;28;704;-62
2021/10/27 02:15:45;;;;;;;;;;;;;;;15.55;77.89;101724.09;1045501;28;669;-62
2021/10/27 02:16:36;;;;;;;;;;;;;;;15.55;77.42;101723.19;1046860;28;1655;-62
2021/10/27 02:17:26;;;;;;;;;;;;;;;15.55;77.78;101725.88;1048945;28;752;-62
2021/10/27 02:18:17;;;;;;;;;;;;;;;15.54;78.00;101725.03;1049255;28;732;-62
2021/10/27 02:19:08;;;;;;;;;;;;;;;15.54;77.75;101730.41;1049038;28;634;-62
2021/10/27 02:19:58;;;;;;;;;;;;;;;15.55;77.65;101729.47;1049687;28;708;-62
2021/10/27 02:20:49;;;;;;;;;;;;;;;15.55;78.06;101728.56;1049064;28;716;-62
2021/10/27 02:21:39;;;;;;;;;;;;;;;15.55;77.72;101731.25;1048922;28;763;-62
2021/10/27 02:22:30;;;;;;;;;;;;;;;15.55;77.78;101723.19;1049155;28;666;-62
2021/10/27 02:23:20;;;;;;;;;;;;;;;15.55;78.07;101732.16;1048795;28;966;-62
2021/10/27 02:24:10;;;;;;;;;;;;;;;15.54;77.44;101727.72;1049080;28;1135;-62
2021/10/27 02:25:01;;;;;;;;;;;;;;;15.54;78.06;101734.91;1048723;28;657;-62
2021/10/27 02:25:51;;;;;;;;;;;;;;;15.55;77.59;101728.56;1048921;28;827;-62
2021/10/27 02:26:42;;;;;;;;;;;;;;;15.54;77.72;101727.72;1049040;28;767;-62
2021/10/27 02:27:32;;;;;;;;;;;;;;;15.54;77.86;101726.84;1048988;28;817;-62
2021/10/27 02:28:23;;;;;;;;;;;;;;;15.54;77.74;101730.41;1048817;28;716;-62
2021/10/27 02:29:13;;;;;;;;;;;;;;;15.54;77.91;101735.78;1049067;28;626;-62
2021/10/27 02:30:04;;;;;;;;;;;;;;;15.55;77.46;101732.16;1048848;28;1211;-62
2021/10/27 02:30:55;;;;;;;;;;;;;;;15.54;77.58;101727.72;1049159;28;673;-62
2021/10/27 02:31:45;;;;;;;;;;;;;;;15.54;78.04;101733.09;1048703;28;737;-63
2021/10/27 02:32:36;;;;;;;;;;;;;;;15.54;77.52;101726.84;1049009;28;677;-62
2021/10/27 02:33:26;;;;;;;;;;;;;;;15.54;77.62;101730.41;1048976;28;685;-63
2021/10/27 02:34:17;;;;;;;;;;;;;;;15.55;78.08;101728.56;1049017;28;792;-63
2021/10/27 02:35:07;;;;;;;;;;;;;;;15.54;77.77;101719.66;1048962;28;637;-62
2021/10/27 02:35:57;;;;;;;;;;;;;;;15.54;77.53;101727.72;1049036;28;756;-62
2021/10/27 02:36:48;;;;;;;;;;;;;;;15.55;77.53;101724.09;1045626;28;685;-62
2021/10/27 02:37:38;;;;;;;;;;;;;;;15.54;77.70;101725.03;1044156;28;693;-63
2021/10/27 02:38:29;;;;;;;;;;;;;;;15.54;77.46;101725.03;1046953;28;1968;-64
2021/10/27 02:39:19;;;;;;;;;;;;;;;15.53;77.60;101728.69;1045822;28;991;-63
2021/10/27 02:40:11;;;;;;;;;;;;;;;15.54;77.55;101730.41;1045819;28;806;-63
2021/10/27 02:41:01;;;;;;;;;;;;;;;15.53;77.68;101726.00;1046018;28;712;-62
2021/10/27 02:41:51;;;;;;;;;;;;;;;15.54;78.13;101721.47;1045935;28;658;-62
2021/10/27 02:42:42;;;;;;;;;;;;;;;15.54;77.70;101727.72;1040824;28;801;-62
2021/10/27 02:43:32;;;;;;;;;;;;;;;15.54;77.98;101727.72;1042150;28;669;-62
2021/10/27 02:44:23;;;;;;;;;;;;;;;15.53;77.44;101731.38;1046327;28;887;-62
2021/10/27 02:45:13;;;;;;;;;;;;;;;15.53;77.77;101731.38;1045976;28;673;-62
2021/10/27 02:46:04;;;;;;;;;;;;;;;15.54;77.72;101722.34;1046582;28;645;-62
2021/10/27 02:46:54;;;;;;;;;;;;;;;15.53;77.74;101717.94;1046541;28;864;-62
2021/10/27 02:47:45;;;;;;;;;;;;;;;15.54;78.20;101725.03;1046366;28;674;-62
2021/10/27 02:48:35;;;;;;;;;;;;;;;15.54;77.55;101726.84;1046397;28;753;-62
2021/10/27 02:49:25;;;;;;;;;;;;;;;15.54;78.15;101725.03;1046500;28;657;-62
2021/10/27 02:50:16;;;;;;;;;;;;;;;15.54;77.72;101725.03;1046624;28;808;-62
2021/10/27 02:51:07;;;;;;;;;;;;;;;15.53;77.61;101720.63;1044416;28;759;-62
2021/10/27 02:51:57;;;;;;;;;;;;;;;15.53;78.19;101717.94;1046566;28;672;-62
2021/10/27 02:52:48;;;;;;;;;;;;;;;15.53;77.59;101709.00;1047091;28;794;-62
2021/10/27 02:53:39;;;;;;;;;;;;;;;15.53;78.14;101715.25;1044286;28;642;-62
2021/10/27 02:54:29;;;;;;;;;;;;;;;15.53;77.69;101712.56;1046471;28;701;-62
2021/10/27 02:55:20;;;;;;;;;;;;;;;15.53;77.74;101711.69;1046412;28;659;-62
2021/10/27 02:56:10;;;;;;;;;;;;;;;15.53;77.82;101703.63;1046434;28;731;-62
2021/10/27 02:57:01;;;;;;;;;;;;;;;15.52;78.06;101708.16;1046434;28;824;-62
2021/10/27 02:57:51;;;;;;;;;;;;;;;15.53;77.77;101706.31;1046483;28;688;-62
2021/10/27 02:58:42;;;;;;;;;;;;;;;15.53;77.69;101709.88;1046339;28;587;-62
2021/10/27 02:59:32;;;;;;;;;;;;;;;15.53;78.18;101709.00;1044048;28;1914;-62
2021/10/27 03:00:22;;;;;;;;;;;;;;;15.53;77.97;101715.25;1046504;28;656;-62
2021/10/27 03:01:13;;;;;;;;;;;;;;;15.53;77.78;101712.56;1046501;28;873;-62
2021/10/27 03:02:04;;;;;;;;;;;;;;;15.54;77.60;101713.41;1045368;28;631;-62
2021/10/27 03:02:54;;;;;;;;;;;;;;;15.54;77.95;101714.28;1046481;28;714;-62
2021/10/27 03:03:45;;;;;;;;;;;;;;;15.54;77.57;101711.59;1046395;28;661;-63
2021/10/27 03:04:35;;;;;;;;;;;;;;;15.52;77.77;101718.91;1044261;28;701;-63
2021/10/27 03:05:26;;;;;;;;;;;;;;;15.53;77.92;101709.88;1047138;28;1563;-63
2021/10/27 03:06:16;;;;;;;;;;;;;;;15.53;77.70;101715.25;1048405;28;610;-63
2021/10/27 03:07:06;;;;;;;;;;;;;;;15.53;78.11;101720.63;1049115;28;1807;-63
2021/10/27 03:07:57;;;;;;;;;;;;;;;15.53;78.15;101720.63;1050027;28;705;-63
2021/10/27 03:08:47;;;;;;;;;;;;;;;15.53;77.70;101725.13;1049036;28;2037;-64
2021/10/27 03:09:38;;;;;;;;;;;;;;;15.53;77.99;101715.25;1049377;28;693;-63
2021/10/27 03:10:28;;;;;;;;;;;;;;;15.52;78.07;101713.53;1049383;28;610;-64
2021/10/27 03:11:19;;;;;;;;;;;;;;;15.52;77.82;101726.97;1049537;28;805;-63
2021/10/27 03:12:09;;;;;;;;;;;;;;;15.52;77.75;101718.91;1049394;28;762;-62
2021/10/27 03:12:59;;;;;;;;;;;;;;;15.53;77.83;101725.13;1049498;28;660;-62
2021/10/27 03:13:50;;;;;;;;;;;;;;;15.53;77.71;101720.63;1049301;28;812;-62
2021/10/27 03:14:40;;;;;;;;;;;;;;;15.52;77.93;101713.53;1049300;28;645;-62
2021/10/27 03:15:31;;;;;;;;;;;;;;;15.53;77.62;101715.25;1049412;28;676;-61
2021/10/27 03:16:21;;;;;;;;;;;;;;;15.52;77.70;101716.22;1049407;28;731;-63
2021/10/27 03:17:16;;;;;;;;;;;;;;;15.52;77.64;101724.28;1049416;28;686;-61
2021/10/27 03:18:06;;;;;;;;;;;;;;;15.53;77.93;101726.00;1049335;28;992;-62
2021/10/27 03:18:57;;;;;;;;;;;;;;;15.53;78.04;101719.75;1049309;28;684;-61
2021/10/27 03:19:47;;;;;;;;;;;;;;;15.53;78.06;101719.75;1049259;28;1898;-62
2021/10/27 03:20:38;;;;;;;;;;;;;;;15.53;77.56;101726.00;1049363;28;701;-61
2021/10/27 03:21:28;;;;;;;;;;;;;;;15.53;77.56;101723.31;1049433;28;741;-61
2021/10/27 03:22:19;;;;;;;;;;;;;;;15.52;77.99;101721.59;1049105;28;869;-61
2021/10/27 03:23:09;;;;;;;;;;;;;;;15.52;78.01;101721.59;1049015;28;1002;-62
2021/10/27 03:24:00;;;;;;;;;;;;;;;15.53;77.84;101725.13;1049288;28;750;-62
2021/10/27 03:24:51;;;;;;;;;;;;;;;15.53;77.78;101727.81;1049380;28;671;-62
2021/10/27 03:25:41;;;;;;;;;;;;;;;15.52;77.87;101726.97;1049398;28;700;-62
2021/10/27 03:26:32;;;;;;;;;;;;;;;15.52;77.86;101728.78;1049427;28;749;-62
2021/10/27 03:27:22;;;;;;;;;;;;;;;15.52;78.04;101732.34;1049385;28;715;-62
2021/10/27 03:28:12;;;;;;;;;;;;;;;15.52;77.84;101726.97;1049376;28;719;-62
2021/10/27 03:29:03;;;;;;;;;;;;;;;15.53;77.74;101735.88;1049304;28;697;-62
2021/10/27 03:29:53;;;;;;;;;;;;;;;15.52;78.05;101735.03;1048986;28;1277;-62
2021/10/27 03:30:44;;;;;;;;;;;;;;;15.52;77.50;101731.47;1050442;28;850;-62
2021/10/27 03:31:37;;;;;;;;;;;;;;;15.51;77.88;101727.94;1049300;28;638;-62
2021/10/27 03:32:27;;;;;;;;;;;;;;;15.51;77.92;101727.94;1049121;28;795;-63
2021/10/27 03:33:17;;;;;;;;;;;;;;;15.52;77.79;101737.72;1049135;28;1595;-63
2021/10/27 03:34:08;;;;;;;;;;;;;;;15.52;77.68;101731.47;1049058;28;1496;-63
2021/10/27 03:34:58;;;;;;;;;;;;;;;15.51;77.67;101725.25;1048609;28;1656;-63
2021/10/27 03:35:51;;;;;;;;;;;;;;;15.51;78.06;101727.94;1050040;28;673;-63
2021/10/27 03:36:42;;;;;;;;;;;;;;;15.51;77.80;101732.44;1046097;28;724;-62
2021/10/27 03:37:33;;;;;;;;;;;;;;;15.50;77.71;101734.25;1045776;28;775;-62
2021/10/27 03:38:24;;;;;;;;;;;;;;;15.51;78.03;101732.44;1045712;28;1549;-62
2021/10/27 03:39:14;;;;;;;;;;;;;;;15.51;77.49;101727.94;1044595;28;630;-62
2021/10/27 03:40:05;;;;;;;;;;;;;;;15.51;77.71;101738.66;1045854;28;721;-62
2021/10/27 03:40:55;;;;;;;;;;;;;;;15.52;77.80;101734.16;1045713;28;891;-62
2021/10/27 03:41:46;;;;;;;;;;;;;;;15.51;77.99;101736.00;1045239;28;736;-62
2021/10/27 03:42:37;;;;;;;;;;;;;;;15.51;77.84;101744.03;1045452;28;641;-62
2021/10/27 03:43:27;;;;;;;;;;;;;;;15.52;78.16;101739.53;1046276;28;662;-62
2021/10/27 03:44:17;;;;;;;;;;;;;;;15.52;77.84;101736.84;1044924;28;634;-62
2021/10/27 03:45:08;;;;;;;;;;;;;;;15.52;77.79;101734.16;1045594;28;954;-62
2021/10/27 03:45:58;;;;;;;;;;;;;;;15.51;77.81;101741.34;1045692;28;688;-62
2021/10/27 03:46:50;;;;;;;;;;;;;;;15.52;77.87;101745.75;1046051;28;791;-62
2021/10/27 03:47:40;;;;;;;;;;;;;;;15.52;77.77;101736.84;1046214;28;693;-63
2021/10/27 03:48:30;;;;;;;;;;;;;;;15.51;78.06;101744.03;1045213;28;803;-61
2021/10/27 03:49:21;;;;;;;;;;;;;;;15.51;78.09;101752.09;1045012;28;855;-62
2021/10/27 03:50:14;;;;;;;;;;;;;;;15.51;77.93;101740.50;1046387;28;629;-62
2021/10/27 03:51:05;;;;;;;;;;;;;;;15.51;77.65;101743.19;1045259;28;948;-62
2021/10/27 03:51:55;;;;;;;;;;;;;;;15.50;77.65;101742.31;1046372;28;695;-62
2021/10/27 03:52:46;;;;;;;;;;;;;;;15.51;77.58;101737.81;1046046;28;649;-62
2021/10/27 03:53:36;;;;;;;;;;;;;;;15.52;77.87;101739.53;1046148;28;1216;-62
2021/10/27 03:54:27;;;;;;;;;;;;;;;15.51;77.51;101740.50;1041512;28;707;-62
2021/10/27 03:55:17;;;;;;;;;;;;;;;15.52;77.69;101736.84;1044462;28;858;-63
2021/10/27 03:56:08;;;;;;;;;;;;;;;15.51;77.59;101738.66;1045781;28;709;-62
2021/10/27 03:56:58;;;;;;;;;;;;;;;15.51;78.13;101741.34;1045714;28;653;-63
2021/10/27 03:57:48;;;;;;;;;;;;;;;15.50;78.06;101745.00;1045157;28;738;-62
2021/10/27 03:58:39;;;;;;;;;;;;;;;15.51;78.09;101743.19;1045589;28;704;-62
2021/10/27 03:59:29;;;;;;;;;;;;;;;15.50;77.77;101742.31;1046125;28;751;-62
2021/10/27 04:00:20;;;;;;;;;;;;;;;15.50;77.83;101736.94;1045750;28;705;-62
2021/10/27 04:01:10;;;;;;;;;;;;;;;15.51;78.21;101740.50;1045769;28;634;-62
2021/10/27 04:02:01;;;;;;;;;;;;;;;15.51;77.84;101743.19;1048171;28;1538;-62
2021/10/27 04:02:51;;;;;;;;;;;;;;;15.50;78.07;101742.31;1049928;28;632;-62
2021/10/27 04:03:42;;;;;;;;;;;;;;;15.50;77.84;101736.94;1049853;28;834;-62
2021/10/27 04:04:32;;;;;;;;;;;;;;;15.50;77.93;101736.94;1049822;28;689;-62
2021/10/27 04:05:23;;;;;;;;;;;;;;;15.51;77.84;101735.13;1049867;28;816;-62
2021/10/27 04:06:13;;;;;;;;;;;;;;;15.51;77.84;101737.81;1049931;28;793;-62
2021/10/27 04:07:04;;;;;;;;;;;;;;;15.51;77.49;101733.31;1049929;28;704;-62
2021/10/27 04:07:54;;;;;;;;;;;;;;;15.51;77.84;101730.63;1049844;28;959;-62
2021/10/27 04:08:44;;;;;;;;;;;;;;;15.51;77.92;101737.81;1049735;28;668;-61
2021/10/27 04:09:35;;;;;;;;;;;;;;;15.51;77.52;101736.00;1049859;28;641;-61
2021/10/27 04:10:26;;;;;;;;;;;;;;;15.50;77.43;101726.22;1045529;28;665;-61
2021/10/27 04:11:16;;;;;;;;;;;;;;;15.51;77.77;101727.94;1045729;28;717;-61
2021/10/27 04:12:07;;;;;;;;;;;;;;;15.52;77.62;101729.66;1049393;28;1852;-61
2021/10/27 04:12:57;;;;;;;;;;;;;;;15.52;77.50;101723.41;1046029;28;641;-61
2021/10/27 04:13:48;;;;;;;;;;;;;;;15.52;77.67;101732.34;1045002;28;746;-61
2021/10/27 04:14:38;;;;;;;;;;;;;;;15.53;77.55;101734.06;1048535;28;618;-61
2021/10/27 04:15:29;;;;;;;;;;;;;;;15.54;77.68;101725.03;1049921;28;724;-60
2021/10/27 04:16:19;;;;;;;;;;;;;;;15.53;77.69;101720.63;1048576;28;848;-61
2021/10/27 04:17:09;;;;;;;;;;;;;;;15.55;77.67;101717.81;1048722;28;655;-61
2021/10/27 04:18:02;;;;;;;;;;;;;;;15.56;77.44;101730.31;1048903;28;708;-61
2021/10/27 04:18:53;;;;;;;;;;;;;;;15.57;77.42;101727.53;1049874;28;648;-61
2021/10/27 04:19:43;;;;;;;;;;;;;;;15.57;77.50;101729.34;1048469;28;1902;-61
2021/10/27 04:20:34;;;;;;;;;;;;;;;15.59;77.71;101730.06;1049814;28;875;-60
2021/10/27 04:21:24;;;;;;;;;;;;;;;15.59;77.32;101725.56;1048699;28;696;-60
2021/10/27 04:22:15;;;;;;;;;;;;;;;15.60;77.46;101726.41;1048849;28;643;-60
2021/10/27 04:23:05;;;;;;;;;;;;;;;15.59;77.46;101730.94;1048411;28;903;-61
2021/10/27 04:23:56;;;;;;;;;;;;;;;15.61;77.72;101725.47;1048880;28;728;-61
2021/10/27 04:24:46;;;;;;;;;;;;;;;15.61;77.21;101734.38;1048478;28;781;-61
2021/10/27 04:25:37;;;;;;;;;;;;;;;15.61;77.59;101729.00;1048756;28;779;-63